Murdock, Ohio
Current Conditions -  °F | °C
As of 2:53 PM on Sunday 21 Dec 2014 (Local Time) from KLUK Reporting Station
Clear Clear  
Wind Chill: 32°   Ceiling: Unl
Heat Index: 36°   Visibility: 10mi
Dew Point: 27°   Wind: 5mph
Humidity: 70%   Direction: 160°SSE
Pressure: 30.22"   Gusts: NA
Location:  39.23°N, 84.2394°W
Report Text: KLUK 211953Z 16004KT 10SM CLR 02/M03 A3022 RMK AO2 SLP237 T00221028
Loading
Personal Weather Stations






























Interactive Weather Map New forecast layout! Learn more

10-Day Weather Forecast

Advertisements
Track Severe Weather on mobile